createdAt,value
2023-05-07T00:01:18.229Z,99584.03
2023-05-07T00:03:22.826Z,99583.47
2023-05-07T00:05:25.805Z,99575.06
2023-05-07T00:07:28.508Z,99582.34
2023-05-07T00:09:31.312Z,99589.44
2023-05-07T00:11:36.966Z,99591.84
2023-05-07T00:13:39.876Z,99591.31
2023-05-07T00:15:42.563Z,99585.06
2023-05-07T00:17:45.335Z,99585.56
2023-05-07T00:19:48.125Z,99587.47
2023-05-07T00:21:50.922Z,99587.16
2023-05-07T00:23:54.889Z,99583.66
2023-05-07T00:25:57.914Z,99583.09
2023-05-07T00:28:04.865Z,99573.03
2023-05-07T00:30:08.413Z,99588.22
2023-05-07T00:32:12.215Z,99580.03
2023-05-07T00:34:15.116Z,99579.97
2023-05-07T00:36:17.949Z,99597.03
2023-05-07T00:38:20.731Z,99591.34
2023-05-07T00:40:23.423Z,99593.22
2023-05-07T00:42:26.397Z,99590.25
2023-05-07T00:44:29.634Z,99590.72
2023-05-07T00:46:34.282Z,99592.34
2023-05-07T00:48:37.141Z,99587.78
2023-05-07T00:50:40.248Z,99589.91
2023-05-07T00:52:43.786Z,99591.78
2023-05-07T00:54:46.872Z,99589.34
2023-05-07T00:56:49.606Z,99592.56
2023-05-07T00:58:52.317Z,99591.75
2023-05-07T01:00:55.219Z,99597.44
2023-05-07T01:02:58.739Z,99583.00
2023-05-07T01:05:03.012Z,99592.25
2023-05-07T01:07:07.157Z,99590.38
2023-05-07T01:09:10.336Z,99597.09
2023-05-07T01:11:13.594Z,99599.81
2023-05-07T01:13:17.238Z,99600.06
2023-05-07T01:15:20.120Z,99599.25
2023-05-07T01:17:22.999Z,99597.34
2023-05-07T01:19:25.912Z,99602.75
2023-05-07T01:21:33.820Z,99601.72
2023-05-07T01:23:37.234Z,99603.59
2023-05-07T01:25:40.003Z,99600.91
2023-05-07T01:27:42.808Z,99601.72
2023-05-07T01:29:45.367Z,99603.31
2023-05-07T01:31:49.619Z,99597.09
2023-05-07T01:33:54.048Z,99602.84
2023-05-07T01:35:57.184Z,99598.22
2023-05-07T01:38:00.268Z,99603.94
2023-05-07T01:40:04.100Z,99605.59
2023-05-07T01:42:08.139Z,99605.31
2023-05-07T01:44:15.162Z,99603.13
2023-05-07T01:46:19.183Z,99607.53
2023-05-07T01:48:22.442Z,99610.50
2023-05-07T01:50:26.718Z,99610.84
2023-05-07T01:52:29.808Z,99616.53
2023-05-07T01:54:32.586Z,99614.94
2023-05-07T01:56:36.147Z,99616.09
2023-05-07T01:58:38.871Z,99618.00
2023-05-07T02:00:42.113Z,99621.00
2023-05-07T02:02:45.106Z,99609.69
2023-05-07T02:04:47.879Z,99612.69
2023-05-07T02:06:50.489Z,99620.84
2023-05-07T02:08:53.186Z,99623.63
2023-05-07T02:10:55.974Z,99626.59
2023-05-07T02:12:59.041Z,99628.53
2023-05-07T02:15:01.952Z,99626.38
2023-05-07T02:17:09.785Z,99632.09
2023-05-07T02:19:12.893Z,99631.88
2023-05-07T02:21:16.176Z,99626.75
2023-05-07T02:23:19.063Z,99634.59
2023-05-07T02:25:21.824Z,99637.38
2023-05-07T02:27:24.594Z,99644.97
2023-05-07T02:29:27.191Z,99642.81
2023-05-07T02:31:29.896Z,99648.28
2023-05-07T02:33:32.879Z,99649.94
2023-05-07T02:35:35.839Z,99645.63
2023-05-07T02:37:38.789Z,99652.16
2023-05-07T02:39:41.607Z,99648.09
2023-05-07T02:41:44.281Z,99651.06
2023-05-07T02:43:46.905Z,99653.84
2023-05-07T02:45:49.906Z,99651.38
2023-05-07T02:47:52.678Z,99662.53
2023-05-07T02:49:56.245Z,99665.53
2023-05-07T02:51:58.939Z,99664.75
2023-05-07T02:54:02.152Z,99667.75
2023-05-07T02:56:05.115Z,99670.75
2023-05-07T02:58:07.800Z,99665.06
2023-05-07T03:00:15.559Z,99653.41
2023-05-07T03:02:18.240Z,99669.16
2023-05-07T03:04:21.705Z,99671.09
2023-05-07T03:06:24.382Z,99675.16
2023-05-07T03:08:27.287Z,99680.34
2023-05-07T03:10:29.976Z,99669.50
2023-05-07T03:12:32.800Z,99664.09
2023-05-07T03:14:35.722Z,99679.25
2023-05-07T03:16:39.994Z,99682.03
2023-05-07T03:18:42.677Z,99669.53
2023-05-07T03:20:45.502Z,99683.41
2023-05-07T03:22:48.331Z,99676.59
2023-05-07T03:24:51.092Z,99687.47
2023-05-07T03:26:53.975Z,99687.75
2023-05-07T03:28:57.276Z,99674.22
2023-05-07T03:31:00.054Z,99682.34
2023-05-07T03:33:02.800Z,99687.81
2023-05-07T03:35:06.057Z,99687.56
2023-05-07T03:37:08.746Z,99694.06
2023-05-07T03:39:11.712Z,99692.44
2023-05-07T03:41:14.866Z,99694.88
2023-05-07T03:43:17.658Z,99692.19
2023-05-07T03:45:20.664Z,99689.47
2023-05-07T03:47:23.440Z,99693.56
2023-05-07T03:49:26.132Z,99690.59
2023-05-07T03:51:28.843Z,99683.81
2023-05-07T03:53:31.547Z,99697.69
2023-05-07T03:55:34.229Z,99701.22
2023-05-07T03:57:36.881Z,99692.53
2023-05-07T03:59:39.657Z,99714.25
2023-05-07T04:01:42.369Z,99707.50
2023-05-07T04:03:45.165Z,99699.88
2023-05-07T04:05:48.393Z,99707.50
2023-05-07T04:07:51.123Z,99702.91
2023-05-07T04:09:53.719Z,99706.41
2023-05-07T04:11:56.374Z,99699.09
2023-05-07T04:13:59.086Z,99709.44
2023-05-07T04:16:04.199Z,99705.59
2023-05-07T04:18:07.020Z,99718.41
2023-05-07T04:20:18.011Z,99699.38
2023-05-07T04:22:20.776Z,99720.56
2023-05-07T04:24:23.511Z,99710.00
2023-05-07T04:26:26.272Z,99723.56
2023-05-07T04:28:28.960Z,99729.25
2023-05-07T04:30:31.821Z,99710.25
2023-05-07T04:32:34.525Z,99710.78
2023-05-07T04:34:37.108Z,99718.09
2023-05-07T04:36:40.283Z,99730.34
2023-05-07T04:38:43.052Z,99722.41
2023-05-07T04:40:47.413Z,99724.50
2023-05-07T04:42:50.453Z,99718.00
2023-05-07T04:44:55.254Z,99713.34
2023-05-07T04:46:58.563Z,99722.59
2023-05-07T04:49:01.308Z,99717.69
2023-05-07T04:51:04.315Z,99703.78
2023-05-07T04:53:07.015Z,99716.53
2023-05-07T04:55:10.254Z,99717.91
2023-05-07T04:57:13.140Z,99715.72
2023-05-07T04:59:15.781Z,99714.28
2023-05-07T05:01:18.571Z,99713.66
2023-05-07T05:03:21.529Z,99715.88
2023-05-07T05:05:24.267Z,99725.75
2023-05-07T05:07:26.909Z,99722.75
2023-05-07T05:09:29.624Z,99728.75
2023-05-07T05:11:33.014Z,99728.50
2023-05-07T05:13:35.763Z,99722.47
2023-05-07T05:15:38.532Z,99727.91
2023-05-07T05:17:41.481Z,99724.31
2023-05-07T05:19:44.489Z,99730.00
2023-05-07T05:21:47.222Z,99730.56
2023-05-07T05:23:49.930Z,99723.13
2023-05-07T05:25:58.529Z,99731.22
2023-05-07T05:28:01.292Z,99746.22
2023-05-07T05:30:05.101Z,99759.91
2023-05-07T05:32:08.352Z,99731.41
2023-05-07T05:34:11.229Z,99732.69
2023-05-07T05:36:14.424Z,99734.50
2023-05-07T05:38:17.180Z,99725.56
2023-05-07T05:40:20.001Z,99727.91
2023-05-07T05:42:23.671Z,99730.00
2023-05-07T05:44:26.845Z,99738.19
2023-05-07T05:46:29.608Z,99731.06
2023-05-07T05:48:32.400Z,99731.84
2023-05-07T05:50:37.034Z,99743.84
2023-05-07T05:52:39.762Z,99737.31
2023-05-07T05:54:42.393Z,99736.78
2023-05-07T05:56:45.299Z,99749.31
2023-05-07T05:58:48.412Z,99741.47
2023-05-07T06:00:53.440Z,99734.97
2023-05-07T06:02:56.648Z,99748.91
2023-05-07T06:04:59.366Z,99754.06
2023-05-07T06:07:01.983Z,99745.56
2023-05-07T06:09:04.928Z,99744.63
2023-05-07T06:11:07.621Z,99749.94
2023-05-07T06:13:10.318Z,99744.09
2023-05-07T06:15:13.134Z,99743.72
2023-05-07T06:17:15.919Z,99744.00
2023-05-07T06:19:24.162Z,99738.88
2023-05-07T06:21:26.867Z,99737.03
2023-05-07T06:23:29.550Z,99756.78
2023-05-07T06:25:32.389Z,99747.16
2023-05-07T06:27:35.125Z,99748.69
2023-05-07T06:29:37.907Z,99759.63
2023-05-07T06:31:40.827Z,99756.81
2023-05-07T06:33:46.091Z,99767.72
2023-05-07T06:35:48.703Z,99785.56
2023-05-07T06:37:51.330Z,99792.63
2023-05-07T06:39:53.984Z,99796.06
2023-05-07T06:41:56.653Z,99780.38
2023-05-07T06:43:59.536Z,99786.06
2023-05-07T06:46:02.357Z,99793.44
2023-05-07T06:48:05.461Z,99787.44
2023-05-07T06:50:09.187Z,99786.63
2023-05-07T06:52:12.012Z,99772.50
2023-05-07T06:54:15.260Z,99775.47
2023-05-07T06:56:17.959Z,99776.78
2023-05-07T06:58:20.762Z,99776.97
2023-05-07T07:00:23.564Z,99769.94
2023-05-07T07:02:26.504Z,99765.94
2023-05-07T07:04:29.765Z,99780.28
2023-05-07T07:06:33.001Z,99768.50
2023-05-07T07:08:36.000Z,99775.38
2023-05-07T07:10:38.833Z,99781.94
2023-05-07T07:12:41.791Z,99777.03
2023-05-07T07:14:44.507Z,99776.53
2023-05-07T07:16:48.121Z,99792.44
2023-05-07T07:18:50.828Z,99780.72
2023-05-07T07:20:53.657Z,99779.31
2023-05-07T07:22:56.379Z,99790.41
2023-05-07T07:25:00.177Z,99773.91
2023-05-07T07:27:03.029Z,99778.91
2023-05-07T07:29:05.963Z,99775.53
2023-05-07T07:31:08.707Z,99789.16
2023-05-07T07:33:11.367Z,99799.31
2023-05-07T07:35:14.091Z,99786.81
2023-05-07T07:37:17.251Z,99788.81
2023-05-07T07:39:20.007Z,99778.16
2023-05-07T07:41:22.732Z,99841.44
2023-05-07T07:43:25.535Z,99790.41
2023-05-07T07:45:28.502Z,99792.06
2023-05-07T07:47:31.258Z,99783.94
2023-05-07T07:49:34.037Z,99785.59
2023-05-07T07:51:36.896Z,99780.22
2023-05-07T07:53:39.571Z,99803.19
2023-05-07T07:55:42.844Z,99789.00
2023-05-07T07:57:45.583Z,99780.94
2023-05-07T07:59:48.267Z,99807.72
2023-05-07T08:01:53.491Z,99790.25
2023-05-07T08:04:00.084Z,99803.06
2023-05-07T08:06:02.865Z,99797.13
2023-05-07T08:08:06.055Z,99804.78
2023-05-07T08:10:09.228Z,99798.44
2023-05-07T08:12:12.152Z,99798.41
2023-05-07T08:14:16.878Z,99810.75
2023-05-07T08:16:20.055Z,99836.16
2023-05-07T08:18:25.682Z,99818.16
2023-05-07T08:20:29.357Z,99811.97
2023-05-07T08:22:32.215Z,99796.94
2023-05-07T08:24:34.998Z,99808.47
2023-05-07T08:26:40.549Z,99810.56
2023-05-07T08:28:43.457Z,99820.00
2023-05-07T08:30:46.270Z,99817.41
2023-05-07T08:32:48.983Z,99827.84
2023-05-07T08:34:52.338Z,99801.41
2023-05-07T08:36:55.170Z,99803.34
2023-05-07T08:38:57.848Z,99814.56
2023-05-07T08:41:00.632Z,99812.19
2023-05-07T08:43:04.300Z,99819.66
2023-05-07T08:45:11.552Z,99805.75
2023-05-07T08:47:14.632Z,99786.47
2023-05-07T08:49:18.293Z,99807.84
2023-05-07T08:51:22.596Z,99800.88
2023-05-07T08:53:25.749Z,99806.00
2023-05-07T08:55:30.059Z,99812.88
2023-05-07T08:57:32.975Z,99812.06
2023-05-07T08:59:35.934Z,99817.81
2023-05-07T09:01:39.803Z,99815.09
2023-05-07T09:03:45.525Z,99824.00
2023-05-07T09:05:48.128Z,99822.84
2023-05-07T09:07:53.989Z,99830.34
2023-05-07T09:09:58.392Z,99816.63
2023-05-07T09:12:01.614Z,99813.81
2023-05-07T09:14:05.502Z,99825.50
2023-05-07T09:16:13.467Z,99837.56
2023-05-07T09:18:16.897Z,99827.41
2023-05-07T09:20:19.949Z,99829.34
2023-05-07T09:22:22.628Z,99838.13
2023-05-07T09:24:25.306Z,99833.94
2023-05-07T09:26:29.362Z,99846.28
2023-05-07T09:28:34.282Z,99846.28
2023-05-07T09:30:37.503Z,99824.53
2023-05-07T09:32:40.338Z,99822.31
2023-05-07T09:34:43.400Z,99832.88
2023-05-07T09:36:46.412Z,99859.00
2023-05-07T09:38:52.249Z,99834.31
2023-05-07T09:41:09.823Z,99838.06
2023-05-07T09:43:14.959Z,99848.34
2023-05-07T09:45:22.840Z,99838.38
2023-05-07T09:47:26.822Z,99832.97
2023-05-07T09:49:31.469Z,99834.38
2023-05-07T09:51:46.934Z,99835.56
2023-05-07T09:53:50.023Z,99837.56
2023-05-07T09:55:54.007Z,99837.03
2023-05-07T09:57:56.856Z,99855.03
2023-05-07T10:00:01.160Z,99836.66
2023-05-07T10:02:11.443Z,99859.13
2023-05-07T10:04:15.370Z,99850.81
2023-05-07T10:06:19.062Z,99845.25
2023-05-07T10:08:22.093Z,99853.50
2023-05-07T10:10:25.462Z,99857.06
2023-05-07T10:12:29.284Z,99852.44
2023-05-07T10:14:32.048Z,99869.56
2023-05-07T10:16:37.808Z,99850.97
2023-05-07T10:18:42.325Z,99868.75
2023-05-07T10:20:48.270Z,99895.50
2023-05-07T10:22:53.402Z,99873.44
2023-05-07T10:25:00.771Z,99859.84
2023-05-07T10:27:08.512Z,99853.97
2023-05-07T10:29:20.392Z,99876.69
2023-05-07T10:32:10.903Z,99869.03
2023-05-07T10:34:18.183Z,99859.06
2023-05-07T10:36:23.611Z,99865.31
2023-05-07T10:38:28.054Z,99855.25
2023-05-07T10:40:32.349Z,99879.72
2023-05-07T10:42:35.384Z,99868.75
2023-05-07T10:44:38.778Z,99867.41
2023-05-07T10:46:41.572Z,99863.50
2023-05-07T10:49:07.195Z,99873.09
2023-05-07T10:51:23.436Z,99875.72
2023-05-07T10:53:28.628Z,99899.53
2023-05-07T10:55:31.595Z,99873.03
2023-05-07T10:57:39.215Z,99871.31
2023-05-07T10:59:44.782Z,99870.13
2023-05-07T11:02:07.656Z,99883.59
2023-05-07T11:04:17.250Z,99889.06
2023-05-07T11:06:20.012Z,99866.03
2023-05-07T11:08:22.739Z,99874.19
2023-05-07T11:10:59.490Z,99867.31
2023-05-07T11:13:02.961Z,99873.56
2023-05-07T11:15:13.234Z,99885.03
2023-05-07T11:17:23.060Z,99881.28
2023-05-07T11:19:57.232Z,99874.88
2023-05-07T11:21:59.962Z,99880.72
2023-05-07T11:24:04.437Z,99878.44
2023-05-07T11:26:15.576Z,99873.88
2023-05-07T11:28:18.904Z,99888.75
2023-05-07T11:30:21.764Z,99880.66
2023-05-07T11:32:30.777Z,99887.66
2023-05-07T11:34:34.359Z,99906.97
2023-05-07T11:36:43.993Z,99900.78
2023-05-07T11:38:46.914Z,99905.34
2023-05-07T11:40:58.765Z,99901.88
2023-05-07T11:43:11.332Z,99891.63
2023-05-07T11:45:23.997Z,99897.00
2023-05-07T11:47:26.635Z,99889.59
2023-05-07T11:49:30.841Z,99897.88
2023-05-07T11:51:33.762Z,99909.16
2023-05-07T11:53:38.266Z,99905.34
2023-05-07T11:55:41.250Z,99898.72
2023-05-07T11:57:44.127Z,99900.31
2023-05-07T11:59:48.673Z,99909.13
2023-05-07T12:01:51.312Z,99909.44
2023-05-07T12:03:54.245Z,99902.13
2023-05-07T12:05:57.036Z,99911.63
2023-05-07T12:07:59.719Z,99910.84
2023-05-07T12:10:08.725Z,99910.84
2023-05-07T12:12:11.941Z,99930.78
2023-05-07T12:14:16.985Z,99923.75
2023-05-07T12:16:20.840Z,99924.47
2023-05-07T12:18:24.516Z,99924.56
2023-05-07T12:20:27.374Z,99941.19
2023-05-07T12:22:30.198Z,99925.78
2023-05-07T12:24:58.431Z,99952.00
2023-05-07T12:27:01.723Z,99935.41
2023-05-07T12:29:04.949Z,99943.72
2023-05-07T12:31:08.723Z,99939.50
2023-05-07T12:33:12.129Z,99932.03
2023-05-07T12:35:14.998Z,99962.19
2023-05-07T12:37:18.072Z,99940.03
2023-05-07T12:39:20.865Z,99953.59
2023-05-07T12:41:28.338Z,99944.84
2023-05-07T12:43:31.349Z,99941.69
2023-05-07T12:45:39.963Z,99940.47
2023-05-07T12:47:47.001Z,99929.06
2023-05-07T12:49:49.695Z,99934.44
2023-05-07T12:51:52.446Z,99940.16
2023-05-07T12:53:58.387Z,99943.09
2023-05-07T12:56:01.260Z,99955.06
2023-05-07T12:58:04.019Z,99953.97
2023-05-07T13:00:07.664Z,99959.59
2023-05-07T13:02:10.813Z,99950.25
2023-05-07T13:04:13.613Z,99963.56
2023-05-07T13:06:16.364Z,99952.69
2023-05-07T13:08:37.380Z,99965.72
2023-05-07T13:10:40.094Z,99950.34
2023-05-07T13:12:43.366Z,99959.56
2023-05-07T13:14:46.026Z,99954.03
2023-05-07T13:16:49.521Z,99959.56
2023-05-07T13:18:53.033Z,99966.78
2023-05-07T13:20:55.946Z,99970.25
2023-05-07T13:22:58.775Z,99972.59
2023-05-07T13:25:01.573Z,99966.28
2023-05-07T13:27:05.482Z,99953.59
2023-05-07T13:29:08.137Z,99984.56
2023-05-07T13:31:11.138Z,99982.25
2023-05-07T13:33:14.029Z,99976.34
2023-05-07T13:35:17.995Z,99958.97
2023-05-07T13:37:21.527Z,100001.94
2023-05-07T13:39:24.390Z,99962.00
2023-05-07T13:41:27.027Z,99971.69
2023-05-07T13:43:30.144Z,99975.41
2023-05-07T13:45:32.812Z,99975.00
2023-05-07T13:47:40.061Z,99969.28
2023-05-07T13:49:43.335Z,99959.50
2023-05-07T13:51:46.600Z,99978.66
2023-05-07T13:53:49.264Z,99989.47
2023-05-07T13:55:52.084Z,99975.41
2023-05-07T13:57:59.620Z,99998.22
2023-05-07T14:00:02.720Z,99985.59
2023-05-07T14:02:07.858Z,99976.50
2023-05-07T14:04:11.546Z,99986.34
2023-05-07T14:06:14.292Z,99976.31
2023-05-07T14:08:18.805Z,99991.91
2023-05-07T14:10:21.859Z,99974.81
2023-05-07T14:12:24.590Z,100011.47
2023-05-07T14:14:27.238Z,99988.22
2023-05-07T14:16:30.095Z,99991.78
2023-05-07T14:18:34.812Z,100007.22
2023-05-07T14:20:38.852Z,99974.56
2023-05-07T14:22:41.662Z,99972.34
2023-05-07T14:24:46.756Z,99986.81
2023-05-07T14:26:51.343Z,99982.66
2023-05-07T14:28:56.071Z,99979.00
2023-05-07T14:30:58.948Z,99996.69
2023-05-07T14:33:01.827Z,99984.56
2023-05-07T14:35:05.173Z,99984.44
2023-05-07T14:37:10.059Z,99999.72
2023-05-07T14:39:13.326Z,99978.59
2023-05-07T14:41:17.752Z,99966.88
2023-05-07T14:43:20.688Z,99994.00
2023-05-07T14:45:23.366Z,100013.69
2023-05-07T14:47:26.145Z,99991.75
2023-05-07T14:49:28.985Z,99990.22
2023-05-07T14:51:31.901Z,99996.31
2023-05-07T14:53:34.678Z,100021.28
2023-05-07T14:55:37.477Z,100006.34
2023-05-07T14:57:40.250Z,99998.25
2023-05-07T14:59:44.113Z,100006.25
2023-05-07T15:01:46.973Z,100015.16
2023-05-07T15:03:49.857Z,99999.84
2023-05-07T15:05:52.838Z,100000.69
2023-05-07T15:07:57.435Z,99999.25
2023-05-07T15:10:00.533Z,100007.63
2023-05-07T15:12:03.475Z,100006.47
2023-05-07T15:14:06.328Z,100011.34
2023-05-07T15:16:09.101Z,99995.88
2023-05-07T15:18:12.046Z,100010.69
2023-05-07T15:20:14.801Z,100007.16
2023-05-07T15:22:17.527Z,100005.66
2023-05-07T15:24:20.193Z,100022.78
2023-05-07T15:26:23.052Z,100009.00
2023-05-07T15:28:26.344Z,100011.03
2023-05-07T15:30:29.266Z,100015.50
2023-05-07T15:32:31.998Z,100013.31
2023-05-07T15:34:34.852Z,100021.00
2023-05-07T15:36:37.614Z,100016.72
2023-05-07T15:38:40.462Z,100025.25
2023-05-07T15:40:43.321Z,100021.19
2023-05-07T15:42:46.815Z,100025.88
2023-05-07T15:44:49.543Z,100029.13
2023-05-07T15:46:52.234Z,100033.38
2023-05-07T15:48:55.343Z,100030.81
2023-05-07T15:50:58.230Z,100032.53
2023-05-07T15:53:00.923Z,100030.78
2023-05-07T15:55:03.833Z,100024.34
2023-05-07T15:57:07.476Z,100032.16
2023-05-07T15:59:10.423Z,100031.84
2023-05-07T16:01:13.061Z,100033.72
2023-05-07T16:03:16.570Z,100029.22
2023-05-07T16:05:19.574Z,100037.28
2023-05-07T16:07:22.727Z,100036.91
2023-05-07T16:09:26.010Z,100041.16
2023-05-07T16:11:30.939Z,100050.03
2023-05-07T16:13:34.917Z,100034.91
2023-05-07T16:15:37.605Z,100041.38
2023-05-07T16:17:40.333Z,100041.31
2023-05-07T16:19:43.582Z,100036.84
2023-05-07T16:21:46.271Z,100054.38
2023-05-07T16:23:50.965Z,100052.31
2023-05-07T16:25:53.884Z,100050.59
2023-05-07T16:27:56.771Z,100058.31
2023-05-07T16:29:59.608Z,100057.28
2023-05-07T16:32:02.562Z,100052.94
2023-05-07T16:34:05.507Z,100053.56
2023-05-07T16:36:08.558Z,100056.84
2023-05-07T16:38:11.921Z,100054.72
2023-05-07T16:40:14.737Z,100067.09
2023-05-07T16:42:17.514Z,100060.06
2023-05-07T16:44:20.271Z,100065.84
2023-05-07T16:46:23.042Z,100070.22
2023-05-07T16:48:26.326Z,100069.44
2023-05-07T16:50:29.344Z,100072.44
2023-05-07T16:52:32.486Z,100071.91
2023-05-07T16:54:37.410Z,100086.13
2023-05-07T16:56:40.293Z,100077.13
2023-05-07T16:58:42.965Z,100080.16
2023-05-07T17:02:51.634Z,100082.38
2023-05-07T17:04:54.708Z,100073.94
2023-05-07T17:06:57.871Z,100083.75
2023-05-07T17:09:00.909Z,100084.03
2023-05-07T17:11:03.573Z,100091.69
2023-05-07T17:13:06.615Z,100095.50
2023-05-07T17:15:10.649Z,100104.25
2023-05-07T17:17:13.598Z,100103.41
2023-05-07T17:19:16.280Z,100099.34
2023-05-07T17:21:18.949Z,100100.41
2023-05-07T17:23:21.744Z,100101.78
2023-05-07T17:25:24.653Z,100108.91
2023-05-07T17:27:27.392Z,100107.81
2023-05-07T17:29:30.529Z,100110.81
2023-05-07T17:31:33.400Z,100112.19
2023-05-07T17:33:36.888Z,100106.19
2023-05-07T17:35:39.534Z,100111.38
2023-05-07T17:37:47.351Z,100111.66
2023-05-07T17:39:52.772Z,100110.28
2023-05-07T17:41:55.962Z,100110.28
2023-05-07T17:43:58.784Z,100106.72
2023-05-07T17:46:01.727Z,100122.00
2023-05-07T17:48:05.230Z,100115.47
2023-05-07T17:50:11.560Z,100112.19
2023-05-07T17:52:14.592Z,100119.28
2023-05-07T17:54:17.336Z,100113.56
2023-05-07T17:56:20.430Z,100117.09
2023-05-07T17:58:25.657Z,100117.66
2023-05-07T18:00:28.414Z,100114.91
2023-05-07T18:02:31.397Z,100120.38
2023-05-07T18:04:34.143Z,100124.97
2023-05-07T18:06:36.966Z,100128.25
2023-05-07T18:08:39.711Z,100127.13
2023-05-07T18:10:42.465Z,100117.59
2023-05-07T18:12:45.184Z,100129.31
2023-05-07T18:14:48.056Z,100126.03
2023-05-07T18:16:50.793Z,100120.88
2023-05-07T18:18:54.617Z,100129.84
2023-05-07T18:20:58.420Z,100130.91
2023-05-07T18:23:01.230Z,100138.28
2023-05-07T18:25:04.381Z,100143.41
2023-05-07T18:27:07.812Z,100142.34
2023-05-07T18:29:11.029Z,100142.59
2023-05-07T18:31:13.842Z,100145.56
2023-05-07T18:33:16.646Z,100152.66
2023-05-07T18:35:19.467Z,100152.09
2023-05-07T18:37:24.077Z,100146.66
2023-05-07T18:39:28.575Z,100162.97
2023-05-07T18:41:31.490Z,100155.31
2023-05-07T18:43:34.418Z,100149.59
2023-05-07T18:45:38.540Z,100155.31
2023-05-07T18:47:41.441Z,100165.06
2023-05-07T18:49:44.114Z,100166.72
2023-05-07T18:51:46.857Z,100169.13
2023-05-07T18:53:49.580Z,100164.22
2023-05-07T18:55:52.971Z,100173.75
2023-05-07T18:57:55.824Z,100172.63
2023-05-07T18:59:58.516Z,100166.06
2023-05-07T19:02:01.147Z,100171.78
2023-05-07T19:04:04.031Z,100177.72
2023-05-07T19:06:07.054Z,100179.88
2023-05-07T19:08:09.834Z,100178.25
2023-05-07T19:10:13.209Z,100182.91
2023-05-07T19:12:16.139Z,100180.16
2023-05-07T19:14:20.797Z,100181.25
2023-05-07T19:16:24.037Z,100177.16
2023-05-07T19:18:26.748Z,100186.91
2023-05-07T19:20:29.799Z,100184.47
2023-05-07T19:22:32.612Z,100177.91
2023-05-07T19:24:37.313Z,100182.81
2023-05-07T19:26:41.280Z,100177.69
2023-05-07T19:28:45.897Z,100180.44
2023-05-07T19:30:52.357Z,100178.53
2023-05-07T19:32:55.314Z,100188.91
2023-05-07T19:34:58.110Z,100181.31
2023-05-07T19:37:00.814Z,100185.41
2023-05-07T19:39:03.623Z,100191.94
2023-05-07T19:41:06.538Z,100192.50
2023-05-07T19:43:09.251Z,100190.91
2023-05-07T19:45:14.764Z,100185.47
2023-05-07T19:47:17.862Z,100190.91
2023-05-07T19:49:21.104Z,100197.47
2023-05-07T19:51:23.993Z,100190.69
2023-05-07T19:53:27.349Z,100193.16
2023-05-07T19:55:30.010Z,100190.16
2023-05-07T19:57:32.772Z,100191.78
2023-05-07T19:59:35.481Z,100196.13
2023-05-07T20:01:39.336Z,100199.41
2023-05-07T20:03:42.350Z,100201.31
2023-05-07T20:05:47.821Z,100202.13
2023-05-07T20:07:50.759Z,100195.88
2023-05-07T20:09:53.466Z,100198.56
2023-05-07T20:11:56.916Z,100199.94
2023-05-07T20:13:59.677Z,100197.50
2023-05-07T20:16:02.928Z,100196.94
2023-05-07T20:18:05.902Z,100203.47
2023-05-07T20:20:09.676Z,100205.66
2023-05-07T20:22:12.924Z,100210.53
2023-05-07T20:24:16.917Z,100213.25
2023-05-07T20:26:19.562Z,100208.09
2023-05-07T20:28:22.634Z,100210.53
2023-05-07T20:30:26.635Z,100208.34
2023-05-07T20:32:29.735Z,100213.81
2023-05-07T20:34:32.519Z,100208.63
2023-05-07T20:36:36.134Z,100205.38
2023-05-07T20:38:38.889Z,100201.25
2023-05-07T20:40:41.860Z,100215.97
2023-05-07T20:42:44.615Z,100219.00
2023-05-07T20:44:47.233Z,100224.94
2023-05-07T20:46:50.503Z,100224.34
2023-05-07T20:48:53.311Z,100223.53
2023-05-07T20:50:57.157Z,100221.38
2023-05-07T20:52:59.941Z,100225.44
2023-05-07T20:55:02.620Z,100219.19
2023-05-07T20:57:08.076Z,100221.59
2023-05-07T20:59:10.907Z,100220.22
2023-05-07T21:01:13.663Z,100225.91
2023-05-07T21:03:16.386Z,100220.66
2023-05-07T21:05:19.307Z,100218.22
2023-05-07T21:07:21.903Z,100222.53
2023-05-07T21:09:24.552Z,100227.38
2023-05-07T21:11:27.269Z,100229.22
2023-05-07T21:13:30.195Z,100232.16
2023-05-07T21:15:32.879Z,100223.69
2023-05-07T21:17:35.746Z,100230.41
2023-05-07T21:19:40.536Z,100233.06
2023-05-07T21:21:43.494Z,100231.13
2023-05-07T21:23:46.226Z,100231.91
2023-05-07T21:25:49.924Z,100229.91
2023-05-07T21:27:53.418Z,100226.34
2023-05-07T21:30:03.462Z,100232.28
2023-05-07T21:32:09.763Z,100232.22
2023-05-07T21:34:12.599Z,100238.94
2023-05-07T21:36:15.366Z,100246.78
2023-05-07T21:38:20.929Z,100239.13
2023-05-07T21:40:23.712Z,100235.03
2023-05-07T21:42:27.786Z,100244.50
2023-05-07T21:44:31.709Z,100241.75
2023-05-07T21:46:34.430Z,100241.69
2023-05-07T21:48:37.227Z,100238.66
2023-05-07T21:50:40.101Z,100242.13
2023-05-07T21:52:42.851Z,100246.97
2023-05-07T21:54:45.551Z,100249.63
2023-05-07T21:56:49.863Z,100248.50
2023-05-07T21:58:52.781Z,100249.28
2023-05-07T22:00:55.640Z,100243.47
2023-05-07T22:02:58.431Z,100259.16
2023-05-07T22:05:01.184Z,100261.81
2023-05-07T22:07:06.654Z,100251.88
2023-05-07T22:09:09.539Z,100255.41
2023-05-07T22:11:12.187Z,100257.31
2023-05-07T22:13:14.964Z,100252.41
2023-05-07T22:15:17.861Z,100256.69
2023-05-07T22:17:20.634Z,100259.31
2023-05-07T22:19:23.360Z,100248.94
2023-05-07T22:21:25.994Z,100262.78
2023-05-07T22:23:28.663Z,100260.06
2023-05-07T22:25:36.383Z,100263.25
2023-05-07T22:27:39.041Z,100265.97
2023-05-07T22:29:41.680Z,100265.97
2023-05-07T22:31:44.614Z,100268.44
2023-05-07T22:33:47.293Z,100263.59
2023-05-07T22:35:49.892Z,100261.38
2023-05-07T22:37:53.254Z,100264.16
2023-05-07T22:39:56.004Z,100273.47
2023-05-07T22:41:59.223Z,100257.66
2023-05-07T22:44:02.184Z,100268.34
2023-05-07T22:46:05.119Z,100261.94
2023-05-07T22:48:07.982Z,100258.72
2023-05-07T22:50:11.402Z,100264.47
2023-05-07T22:52:14.709Z,100265.28
2023-05-07T22:54:17.294Z,100254.72
2023-05-07T22:56:20.049Z,100257.78
2023-05-07T22:58:22.967Z,100254.81
2023-05-07T23:00:25.666Z,100256.22
2023-05-07T23:02:29.419Z,100264.09
2023-05-07T23:04:32.320Z,100256.50
2023-05-07T23:06:35.025Z,100258.47
2023-05-07T23:08:37.698Z,100258.53
2023-05-07T23:10:40.646Z,100251.78
2023-05-07T23:12:44.084Z,100252.91
2023-05-07T23:14:46.839Z,100263.25
2023-05-07T23:16:49.560Z,100265.50
2023-05-07T23:18:52.383Z,100261.69
2023-05-07T23:20:55.280Z,100252.72
2023-05-07T23:22:58.033Z,100252.41
2023-05-07T23:25:00.836Z,100254.56
2023-05-07T23:27:07.591Z,100253.16
2023-05-07T23:29:10.508Z,100250.97
2023-05-07T23:31:13.285Z,100265.84
2023-05-07T23:33:16.471Z,100266.84
2023-05-07T23:35:19.351Z,100261.94
2023-05-07T23:37:22.447Z,100267.59
2023-05-07T23:39:25.188Z,100267.88
2023-05-07T23:41:27.843Z,100265.41
2023-05-07T23:43:30.646Z,100268.94
2023-05-07T23:45:33.363Z,100266.72
2023-05-07T23:47:36.381Z,100269.38
2023-05-07T23:49:39.211Z,100275.63
2023-05-07T23:51:42.153Z,100276.78
2023-05-07T23:53:44.813Z,100272.72
2023-05-07T23:55:47.466Z,100273.59
2023-05-07T23:57:50.224Z,100266.63
2023-05-07T23:59:53.307Z,100276.16
